Time;durP1;ratioP1;P1;durP2;ratioP2;P2;SDS_P1;SDS_P2;PMS_P1;PMS_P2;Temp;Humidity;BMP_temperature;BMP_pressure;BME280_temperature;BME280_humidity;BME280_pressure;Samples;Min_cycle;Max_cycle;Signal;HPM_P1;HPM_P2
2022/10/04 00:02:19;;;;;;;4.70;4.13;;;10.70;99.90;;;;;;5013434;28;20683;-70
2022/10/04 00:04:51;;;;;;;6.30;4.80;;;10.70;99.90;;;;;;5014041;28;20230;-71
2022/10/04 00:07:22;;;;;;;5.13;4.10;;;10.70;99.90;;;;;;5016101;28;20203;-71
2022/10/04 00:09:54;;;;;;;5.93;4.33;;;10.70;99.90;;;;;;5033243;28;20206;-72
2022/10/04 00:12:24;;;;;;;5.77;4.40;;;10.70;99.90;;;;;;5028512;28;20450;-70
2022/10/04 00:14:53;;;;;;;6.17;4.30;;;10.80;99.90;;;;;;5035123;28;20224;-71
2022/10/04 00:17:26;;;;;;;5.10;4.30;;;10.80;99.90;;;;;;5019982;28;20458;-71
2022/10/04 00:19:54;;;;;;;5.67;4.40;;;10.80;99.90;;;;;;5042158;28;20224;-71
2022/10/04 00:22:23;;;;;;;9.07;3.60;;;10.80;99.90;;;;;;5021403;28;20228;-70
2022/10/04 00:25:33;;;;;;;6.43;3.80;;;10.80;99.90;;;;;;5021812;28;20610;-71
2022/10/04 00:28:31;;;;;;;4.30;3.80;;;10.80;99.90;;;;;;5031320;28;20540;-71
2022/10/04 00:31:19;;;;;;;5.33;3.63;;;10.80;99.90;;;;;;5021354;28;20203;-70
2022/10/04 00:33:47;;;;;;;5.23;3.63;;;10.80;99.90;;;;;;5020662;28;20203;-71
2022/10/04 00:36:45;;;;;;;7.47;3.93;;;10.80;99.90;;;;;;5028409;28;20206;-71
2022/10/04 00:39:24;;;;;;;6.07;3.37;;;10.80;99.90;;;;;;4995635;28;20273;-72
2022/10/04 00:42:03;;;;;;;6.80;3.87;;;10.80;99.90;;;;;;5011946;28;20199;-71
2022/10/04 00:44:38;;;;;;;5.50;3.40;;;10.80;99.90;;;;;;5043589;28;20199;-71
2022/10/04 00:47:21;;;;;;;5.43;3.73;;;10.80;99.90;;;;;;5033095;28;20567;-70
2022/10/04 00:49:54;;;;;;;6.07;3.83;;;10.80;99.90;;;;;;5026396;28;20648;-72
2022/10/04 00:52:26;;;;;;;4.67;3.30;;;10.80;99.90;;;;;;5014179;28;20724;-71
2022/10/04 00:54:57;;;;;;;5.07;3.60;;;10.80;99.90;;;;;;5027918;28;20206;-72
2022/10/04 00:57:29;;;;;;;6.10;3.47;;;10.70;99.90;;;;;;5017387;28;20210;-71
2022/10/04 01:00:01;;;;;;;6.03;3.73;;;10.80;99.90;;;;;;5030858;28;20229;-71
2022/10/04 01:02:34;;;;;;;8.50;4.00;;;10.80;99.90;;;;;;5028648;28;20250;-71
2022/10/04 01:05:05;;;;;;;5.93;3.50;;;10.70;99.90;;;;;;5032270;28;20683;-71
2022/10/04 01:07:36;;;;;;;9.13;3.83;;;10.80;99.90;;;;;;5029342;28;20339;-71
2022/10/04 01:10:08;;;;;;;6.80;3.57;;;10.80;99.90;;;;;;5043412;28;20699;-70
2022/10/04 01:12:47;;;;;;;8.30;3.33;;;10.80;99.90;;;;;;5027731;28;20271;-71
2022/10/04 01:15:22;;;;;;;5.67;3.20;;;10.80;99.90;;;;;;5035066;28;20209;-70
2022/10/04 01:18:13;;;;;;;5.37;2.93;;;10.80;99.90;;;;;;5016857;28;20210;-71
2022/10/04 01:20:49;;;;;;;7.40;3.13;;;10.80;99.90;;;;;;5043363;28;20237;-70
2022/10/04 01:26:38;;;;;;;5.30;3.27;;;10.70;99.90;;;;;;5156235;27;20569;-71
2022/10/04 01:29:09;;;;;;;5.90;2.70;;;10.70;99.90;;;;;;5149365;27;20203;-72
2022/10/04 01:31:38;;;;;;;5.27;3.03;;;10.70;99.90;;;;;;5152686;27;20198;-72
2022/10/04 01:34:06;;;;;;;5.53;3.53;;;10.60;99.90;;;;;;5152587;27;20203;-72
2022/10/04 01:36:35;;;;;;;3.87;2.83;;;10.60;99.90;;;;;;5150843;27;20217;-70
2022/10/04 01:39:03;;;;;;;4.27;2.90;;;10.60;99.90;;;;;;5151175;27;20210;-71
2022/10/04 01:41:38;;;;;;;5.77;3.00;;;10.60;99.90;;;;;;5139206;27;20199;-72
2022/10/04 01:44:09;;;;;;;3.90;2.70;;;10.50;99.90;;;;;;5151179;27;20221;-71
2022/10/04 01:46:38;;;;;;;7.63;3.17;;;10.50;99.90;;;;;;5148736;27;20206;-71
2022/10/04 01:49:11;;;;;;;3.40;2.50;;;10.50;99.90;;;;;;5149795;27;20210;-70
2022/10/04 01:51:44;;;;;;;6.13;2.90;;;10.50;99.90;;;;;;5135753;27;20209;-70
2022/10/04 01:54:14;;;;;;;4.33;2.53;;;10.50;99.90;;;;;;5148935;27;20202;-70
2022/10/04 01:56:47;;;;;;;5.27;2.63;;;10.50;99.90;;;;;;5151401;27;20198;-70
2022/10/04 01:59:18;;;;;;;4.87;2.90;;;10.50;99.90;;;;;;5142812;27;20203;-72
2022/10/04 02:01:50;;;;;;;5.13;2.60;;;10.60;99.90;;;;;;5151544;27;20199;-70
2022/10/04 02:04:21;;;;;;;5.60;2.67;;;10.60;99.90;;;;;;5151793;27;20202;-70
2022/10/04 02:06:53;;;;;;;3.93;2.60;;;10.50;99.90;;;;;;5149589;27;20214;-71
2022/10/04 02:09:23;;;;;;;6.53;2.80;;;10.50;99.90;;;;;;5151117;27;20203;-72
2022/10/04 02:11:52;;;;;;;3.27;2.67;;;10.50;99.90;;;;;;5152136;27;20202;-71
2022/10/04 02:14:24;;;;;;;5.20;2.60;;;10.50;99.90;;;;;;5142532;27;20212;-71
2022/10/04 02:16:52;;;;;;;2.60;2.23;;;10.40;99.90;;;;;;5146116;27;20298;-71
2022/10/04 02:19:20;;;;;;;5.50;2.50;;;10.40;99.90;;;;;;5137795;27;20590;-71
2022/10/04 02:21:48;;;;;;;3.60;2.20;;;10.40;99.90;;;;;;5150628;27;20646;-71
2022/10/04 02:24:15;;;;;;;6.43;2.40;;;10.40;99.90;;;;;;5131457;28;20642;-71
2022/10/04 02:26:42;;;;;;;4.97;2.50;;;10.40;99.90;;;;;;5131382;28;20207;-71
2022/10/04 02:29:10;;;;;;;4.53;2.57;;;10.40;99.90;;;;;;5128819;27;20290;-71
2022/10/04 02:34:24;;;;;;;5.00;2.37;;;10.40;99.90;;;;;;5130915;28;20198;-72
2022/10/04 02:36:51;;;;;;;3.73;2.40;;;10.40;99.90;;;;;;5122345;28;20487;-72
2022/10/04 02:39:24;;;;;;;6.07;2.37;;;10.40;99.90;;;;;;5110361;28;20203;-70
2022/10/04 02:41:54;;;;;;;3.80;2.10;;;10.40;99.90;;;;;;5117318;28;20679;-71
2022/10/04 02:44:25;;;;;;;4.50;2.30;;;10.40;99.90;;;;;;5116689;28;20203;-72
2022/10/04 02:46:58;;;;;;;6.33;2.23;;;10.40;99.90;;;;;;5116880;28;20211;-71
2022/10/04 02:49:30;;;;;;;2.90;2.20;;;10.40;99.90;;;;;;5112475;28;20216;-71
2022/10/04 02:52:03;;;;;;;6.27;2.03;;;10.40;99.90;;;;;;5116597;28;20208;-70
2022/10/04 02:54:36;;;;;;;4.53;2.20;;;10.40;99.90;;;;;;5113997;28;20204;-70
2022/10/04 02:57:03;;;;;;;2.87;2.00;;;10.40;99.90;;;;;;5116737;27;20676;-70
2022/10/04 02:59:31;;;;;;;6.37;1.90;;;10.40;99.90;;;;;;5115486;27;20200;-70
2022/10/04 03:02:00;;;;;;;3.80;2.00;;;10.50;99.90;;;;;;5116365;28;20222;-71
2022/10/04 03:04:30;;;;;;;3.37;1.93;;;10.40;99.90;;;;;;5116122;28;20212;-70
2022/10/04 03:06:59;;;;;;;4.90;2.00;;;10.40;99.90;;;;;;5101797;28;20207;-69
2022/10/04 03:09:27;;;;;;;3.60;1.97;;;10.40;99.90;;;;;;5115073;28;20215;-70
2022/10/04 03:11:54;;;;;;;2.30;1.60;;;10.40;99.90;;;;;;5110993;28;20204;-71
2022/10/04 03:14:24;;;;;;;4.63;1.83;;;10.40;99.90;;;;;;5102754;28;20207;-71
2022/10/04 03:16:54;;;;;;;3.60;1.50;;;10.40;99.90;;;;;;5114924;27;20211;-71
2022/10/04 03:19:26;;;;;;;3.83;1.70;;;10.40;99.90;;;;;;5103663;27;20523;-72
2022/10/04 03:21:56;;;;;;;2.23;1.90;;;10.40;99.90;;;;;;5116559;28;20208;-71
2022/10/04 03:24:27;;;;;;;3.83;1.80;;;10.30;99.90;;;;;;5115688;28;20596;-73
2022/10/04 03:26:55;;;;;;;3.47;2.00;;;10.40;99.90;;;;;;5111273;28;20209;-70
2022/10/04 03:29:24;;;;;;;4.83;1.90;;;10.50;99.90;;;;;;5113544;28;20612;-71
2022/10/04 03:31:55;;;;;;;2.73;2.03;;;10.50;99.90;;;;;;5111187;28;20215;-71
2022/10/04 03:34:25;;;;;;;3.97;2.00;;;10.40;99.90;;;;;;5116772;28;20276;-71
2022/10/04 03:36:55;;;;;;;3.33;2.27;;;10.40;99.90;;;;;;5115421;28;20215;-71
2022/10/04 03:39:28;;;;;;;4.60;2.80;;;10.50;99.90;;;;;;5114567;27;20226;-72
2022/10/04 03:41:56;;;;;;;5.10;2.03;;;10.50;99.90;;;;;;5115889;28;20693;-72
2022/10/04 03:44:23;;;;;;;5.80;2.30;;;10.50;99.90;;;;;;5116174;28;20222;-70
2022/10/04 03:46:50;;;;;;;2.93;2.40;;;10.50;99.90;;;;;;5115900;28;20192;-71
2022/10/04 03:49:25;;;;;;;6.73;2.53;;;10.50;99.90;;;;;;5114705;28;20214;-72
2022/10/04 03:51:53;;;;;;;6.40;2.30;;;10.50;99.90;;;;;;5116882;28;20199;-71
2022/10/04 03:54:26;;;;;;;3.17;2.33;;;10.50;99.90;;;;;;5115712;28;20219;-73
2022/10/04 03:56:54;;;;;;;2.30;2.10;;;10.50;99.90;;;;;;5113543;28;20196;-71
2022/10/04 03:59:23;;;;;;;4.30;2.47;;;10.60;99.90;;;;;;5117889;28;20204;-71
2022/10/04 04:01:59;;;;;;;3.50;2.50;;;10.50;99.90;;;;;;5117587;28;20287;-71
2022/10/04 04:04:35;;;;;;;5.27;2.70;;;10.60;99.90;;;;;;5115525;28;20207;-70
2022/10/04 04:07:07;;;;;;;3.17;2.70;;;10.60;99.90;;;;;;5111533;28;20203;-71
2022/10/04 04:09:41;;;;;;;3.40;2.77;;;10.60;99.90;;;;;;5114652;27;20290;-72
2022/10/04 04:12:13;;;;;;;4.23;2.90;;;10.60;99.90;;;;;;5113160;28;20211;-71
2022/10/04 04:14:42;;;;;;;4.03;2.90;;;10.60;99.90;;;;;;5114074;28;20212;-70
2022/10/04 04:17:40;;;;;;;4.07;2.40;;;10.60;99.90;;;;;;5113144;28;20640;-72
2022/10/04 04:20:17;;;;;;;3.57;2.93;;;10.70;99.90;;;;;;5113496;28;20686;-71
2022/10/04 04:22:59;;;;;;;4.93;2.43;;;10.70;99.90;;;;;;5100355;28;20238;-72
2022/10/04 04:25:28;;;;;;;3.60;2.60;;;10.70;99.90;;;;;;5113273;28;20234;-72
2022/10/04 04:28:02;;;;;;;3.63;2.40;;;10.70;99.90;;;;;;5105549;28;20204;-71
2022/10/04 04:30:31;;;;;;;8.37;3.10;;;10.70;99.90;;;;;;5113699;28;20200;-71
2022/10/04 04:33:06;;;;;;;3.10;2.63;;;10.70;99.90;;;;;;5101182;28;20213;-71
2022/10/04 04:35:35;;;;;;;3.57;2.67;;;10.80;99.90;;;;;;5115114;28;20192;-71
2022/10/04 04:38:07;;;;;;;5.50;4.20;;;10.80;99.90;;;;;;5112192;28;20211;-71
2022/10/04 04:40:34;;;;;;;6.27;4.27;;;10.70;99.90;;;;;;5114052;28;20207;-70
2022/10/04 04:43:03;;;;;;;4.67;3.10;;;10.70;99.90;;;;;;5113520;28;20204;-70
2022/10/04 04:45:33;;;;;;;4.57;3.10;;;10.80;99.90;;;;;;5103340;28;20219;-71
2022/10/04 04:48:02;;;;;;;4.07;2.70;;;10.80;99.90;;;;;;5112887;28;20261;-72
2022/10/04 04:50:32;;;;;;;4.67;3.13;;;10.80;99.90;;;;;;5112233;28;20254;-71
2022/10/04 04:53:05;;;;;;;3.80;2.80;;;10.80;99.90;;;;;;5111717;27;20204;-71
2022/10/04 04:55:40;;;;;;;5.20;2.90;;;10.80;99.90;;;;;;5104459;28;20196;-72
2022/10/04 04:58:10;;;;;;;3.33;2.93;;;10.80;99.90;;;;;;5111820;28;20199;-71
2022/10/04 05:00:38;;;;;;;3.07;2.57;;;10.80;99.90;;;;;;5113008;28;20199;-71
2022/10/04 05:03:16;;;;;;;5.00;3.87;;;10.80;99.90;;;;;;5112916;28;20249;-76
2022/10/04 05:05:46;;;;;;;3.37;2.90;;;10.80;99.90;;;;;;5115207;28;20242;-75
2022/10/04 05:08:19;;;;;;;5.57;2.70;;;10.80;99.90;;;;;;5113717;28;20294;-74
2022/10/04 05:10:54;;;;;;;5.83;2.93;;;10.80;99.90;;;;;;5113942;28;20192;-77
2022/10/04 05:13:24;;;;;;;5.77;2.60;;;10.80;99.90;;;;;;5116326;28;20199;-78
2022/10/04 05:15:54;;;;;;;6.40;2.53;;;10.80;99.90;;;;;;5111783;28;20224;-77
2022/10/04 05:18:30;;;;;;;4.87;2.90;;;10.90;99.90;;;;;;5115899;28;20661;-79
2022/10/04 05:21:05;;;;;;;4.53;2.40;;;10.90;99.90;;;;;;5114438;28;20260;-78
2022/10/04 05:23:33;;;;;;;4.03;2.70;;;10.80;99.90;;;;;;5116802;28;20477;-77
2022/10/04 05:26:03;;;;;;;2.93;2.30;;;10.90;99.90;;;;;;5109840;28;20588;-74
2022/10/04 05:28:30;;;;;;;6.70;2.73;;;10.90;99.90;;;;;;5117055;28;20314;-73
2022/10/04 05:31:12;;;;;;;5.43;2.60;;;10.90;99.90;;;;;;5108727;28;20444;-74
2022/10/04 05:33:46;;;;;;;4.20;2.20;;;10.90;99.90;;;;;;5105084;28;20200;-78
2022/10/04 05:36:42;;;;;;;3.30;1.80;;;10.90;99.90;;;;;;5113825;28;20200;-77
2022/10/04 05:39:18;;;;;;;4.43;2.33;;;10.90;99.90;;;;;;5102711;28;20196;-78
2022/10/04 05:41:54;;;;;;;4.67;2.23;;;11.00;99.90;;;;;;5112471;28;20661;-74
2022/10/04 05:44:26;;;;;;;5.30;2.20;;;11.00;99.90;;;;;;5113339;28;20191;-75
2022/10/04 05:46:55;;;;;;;6.80;2.13;;;11.00;99.90;;;;;;5113229;28;20212;-75
2022/10/04 05:49:24;;;;;;;3.40;2.20;;;11.10;99.90;;;;;;5111753;28;20211;-74
2022/10/04 05:51:55;;;;;;;5.60;2.00;;;11.10;99.90;;;;;;5110499;28;20702;-77
2022/10/04 05:54:24;;;;;;;3.60;1.90;;;11.20;99.90;;;;;;5109511;28;20207;-77
2022/10/04 05:57:11;;;;;;;4.20;2.20;;;11.20;99.90;;;;;;5115500;28;20318;-78
2022/10/04 05:59:54;;;;;;;6.23;2.30;;;11.20;99.90;;;;;;5112181;28;20200;-72
2022/10/04 06:02:35;;;;;;;2.57;2.03;;;11.20;99.90;;;;;;5112485;28;20280;-77
2022/10/04 06:05:11;;;;;;;4.60;1.80;;;11.30;99.90;;;;;;5112062;28;20252;-75
2022/10/04 06:07:42;;;;;;;4.93;1.80;;;11.30;99.90;;;;;;5113061;28;20203;-75
2022/10/04 06:10:43;;;;;;;3.57;2.10;;;11.40;99.90;;;;;;5108516;28;20203;-73
2022/10/04 06:13:25;;;;;;;6.00;2.30;;;11.40;99.90;;;;;;5115996;28;20195;-74
2022/10/04 06:16:02;;;;;;;3.33;1.87;;;11.50;99.90;;;;;;5116105;28;20278;-76
2022/10/04 06:18:54;;;;;;;3.97;2.30;;;11.50;99.90;;;;;;5117842;28;20200;-77
2022/10/04 06:21:24;;;;;;;1.93;1.80;;;11.50;99.90;;;;;;5095343;28;20223;-77
2022/10/04 06:24:00;;;;;;;4.47;1.90;;;11.60;99.90;;;;;;5115693;28;20238;-77
2022/10/04 06:26:32;;;;;;;5.80;1.60;;;11.70;99.90;;;;;;5110863;28;20230;-78
2022/10/04 06:29:06;;;;;;;6.30;2.40;;;11.70;99.90;;;;;;5119343;28;20208;-76
2022/10/04 06:32:09;;;;;;;3.67;1.57;;;11.70;99.90;;;;;;5119881;28;20334;-78
2022/10/04 06:35:14;;;;;;;2.17;1.60;;;11.70;99.90;;;;;;5119850;28;20211;-77
2022/10/04 06:38:11;;;;;;;3.77;1.73;;;11.80;99.90;;;;;;5110932;28;20203;-77
2022/10/04 06:40:56;;;;;;;3.17;2.00;;;11.80;99.90;;;;;;5118653;28;20635;-77
2022/10/04 06:43:42;;;;;;;2.60;1.70;;;11.90;99.90;;;;;;5105343;28;20207;-77
2022/10/04 06:46:17;;;;;;;3.00;1.93;;;11.80;99.90;;;;;;5117291;28;20212;-76
2022/10/04 06:49:18;;;;;;;5.23;2.40;;;11.80;99.90;;;;;;5117422;28;20674;-77
2022/10/04 06:52:00;;;;;;;3.60;1.97;;;11.90;99.90;;;;;;5082901;28;20286;-77
2022/10/04 06:54:40;;;;;;;4.67;2.27;;;11.90;99.90;;;;;;5110543;28;20554;-76
2022/10/04 06:57:46;;;;;;;2.30;2.00;;;11.90;99.90;;;;;;5113241;28;20200;-79
2022/10/04 07:00:18;;;;;;;4.47;2.10;;;11.90;99.90;;;;;;5110256;28;20226;-74
2022/10/04 07:02:50;;;;;;;2.87;1.70;;;11.90;99.90;;;;;;5112561;28;20203;-75
2022/10/04 07:05:29;;;;;;;8.07;2.13;;;11.90;99.90;;;;;;5113426;28;20211;-75
2022/10/04 07:08:09;;;;;;;4.13;2.10;;;12.00;99.90;;;;;;5117430;28;20212;-77
2022/10/04 07:10:47;;;;;;;2.77;1.77;;;12.00;99.90;;;;;;5102680;28;20200;-75
2022/10/04 07:13:39;;;;;;;3.07;1.77;;;12.00;99.90;;;;;;5112848;28;20227;-75
2022/10/04 07:16:17;;;;;;;4.00;1.53;;;12.10;99.90;;;;;;5107334;28;20205;-74
2022/10/04 07:19:00;;;;;;;4.37;2.00;;;12.20;99.90;;;;;;5112421;28;20210;-74
2022/10/04 07:21:36;;;;;;;3.17;1.93;;;12.20;99.90;;;;;;5102382;28;20203;-73
2022/10/04 07:24:09;;;;;;;2.87;2.13;;;12.30;99.90;;;;;;5114601;28;20231;-75
2022/10/04 07:26:45;;;;;;;4.23;2.10;;;12.30;99.90;;;;;;5111782;28;20216;-75
2022/10/04 07:29:22;;;;;;;4.33;1.80;;;12.30;99.90;;;;;;5113415;28;20216;-75
2022/10/04 07:31:54;;;;;;;3.40;1.67;;;12.30;99.90;;;;;;5108323;28;20200;-73
2022/10/04 07:34:26;;;;;;;4.20;1.97;;;12.30;99.90;;;;;;5111779;28;20204;-75
2022/10/04 07:36:55;;;;;;;6.13;2.63;;;12.30;99.90;;;;;;5099768;28;20193;-73
2022/10/04 07:39:25;;;;;;;4.50;1.73;;;12.40;99.90;;;;;;5107029;27;20203;-73
2022/10/04 07:41:54;;;;;;;4.77;1.93;;;12.40;99.90;;;;;;5112026;28;20208;-73
2022/10/04 07:44:33;;;;;;;7.57;2.20;;;12.40;99.90;;;;;;5108290;28;20230;-73
2022/10/04 07:47:06;;;;;;;5.07;1.80;;;12.40;99.90;;;;;;5108647;27;20215;-74
2022/10/04 07:49:39;;;;;;;2.60;1.50;;;12.40;99.90;;;;;;5106118;28;20193;-73
2022/10/04 07:52:25;;;;;;;1.90;1.47;;;12.40;99.90;;;;;;5114585;28;20215;-73
2022/10/04 07:55:00;;;;;;;2.70;1.70;;;12.50;99.90;;;;;;5111298;28;20199;-73
2022/10/04 07:57:33;;;;;;;3.17;2.03;;;12.50;99.90;;;;;;5114119;28;20196;-74
2022/10/04 08:00:05;;;;;;;3.30;2.00;;;12.50;99.90;;;;;;5110320;28;20210;-74
2022/10/04 08:02:40;;;;;;;3.77;1.87;;;12.50;99.90;;;;;;5113489;28;20196;-73
2022/10/04 08:05:20;;;;;;;5.10;2.00;;;12.70;99.90;;;;;;5106555;28;20592;-73
2022/10/04 08:08:15;;;;;;;2.53;1.70;;;12.70;99.90;;;;;;5109398;28;20212;-74
2022/10/04 08:10:51;;;;;;;3.73;1.53;;;12.70;99.90;;;;;;5098353;28;20200;-73
2022/10/04 08:13:25;;;;;;;2.67;1.70;;;12.70;99.90;;;;;;5107509;28;20203;-78
2022/10/04 08:15:54;;;;;;;2.03;1.60;;;12.80;99.90;;;;;;5113017;28;20196;-73
2022/10/04 08:18:42;;;;;;;3.93;1.87;;;12.80;99.90;;;;;;5106343;28;20215;-74
2022/10/04 08:21:16;;;;;;;1.90;1.50;;;12.80;99.90;;;;;;5103330;28;20200;-74
2022/10/04 08:24:06;;;;;;;3.93;1.77;;;12.80;99.90;;;;;;5110273;28;20235;-75
2022/10/04 08:26:44;;;;;;;2.83;1.60;;;12.90;99.90;;;;;;5107633;28;20208;-72
2022/10/04 08:29:42;;;;;;;6.10;2.40;;;12.90;99.90;;;;;;5110175;28;20206;-72
2022/10/04 08:32:23;;;;;;;5.50;1.90;;;13.00;99.90;;;;;;5111587;28;20211;-73
2022/10/04 08:35:18;;;;;;;1.80;1.60;;;13.10;99.90;;;;;;5109201;28;20202;-73
2022/10/04 08:38:01;;;;;;;3.23;1.60;;;13.30;99.90;;;;;;5109343;28;20206;-74
2022/10/04 08:41:04;;;;;;;5.47;1.90;;;13.40;99.90;;;;;;5108311;28;20208;-74
2022/10/04 08:43:55;;;;;;;3.30;1.93;;;13.60;99.90;;;;;;5113343;27;20665;-72
2022/10/04 08:46:57;;;;;;;2.57;1.60;;;13.70;99.90;;;;;;5111540;28;20650;-72
2022/10/04 08:49:53;;;;;;;2.30;1.27;;;13.80;99.90;;;;;;5100825;28;20215;-73
2022/10/04 08:52:47;;;;;;;2.33;1.17;;;13.80;99.90;;;;;;5110208;28;20211;-72
2022/10/04 08:55:52;;;;;;;1.17;1.07;;;13.80;99.90;;;;;;5093516;28;20208;-72
2022/10/04 08:58:50;;;;;;;2.53;1.40;;;13.80;99.90;;;;;;5113629;28;20699;-71
2022/10/04 09:01:58;;;;;;;1.93;1.73;;;13.80;99.90;;;;;;5114501;28;20210;-73
2022/10/04 09:05:12;;;;;;;2.30;1.30;;;13.90;99.90;;;;;;5082082;28;20287;-73
2022/10/04 09:07:57;;;;;;;2.60;1.13;;;14.00;99.90;;;;;;5111972;28;20616;-73
2022/10/04 09:10:39;;;;;;;1.63;1.03;;;14.10;99.90;;;;;;5109329;28;20586;-74
2022/10/04 09:13:30;;;;;;;0.80;0.80;;;14.10;99.90;;;;;;5111392;28;20579;-75
2022/10/04 09:16:07;;;;;;;2.03;0.90;;;14.20;99.90;;;;;;5110126;28;20207;-73
2022/10/04 09:18:51;;;;;;;1.30;1.10;;;14.30;99.90;;;;;;5106404;28;20199;-74
2022/10/04 09:21:27;;;;;;;1.20;1.07;;;14.70;99.90;;;;;;5111395;28;20195;-74
2022/10/04 09:24:34;;;;;;;1.70;1.40;;;15.90;99.90;;;;;;5107297;28;20589;-74
2022/10/04 09:27:18;;;;;;;0.90;0.70;;;16.30;99.90;;;;;;5104496;28;20660;-75
2022/10/04 09:30:11;;;;;;;0.77;0.77;;;16.40;99.90;;;;;;5112771;28;20218;-74
2022/10/04 09:33:07;;;;;;;1.37;1.00;;;16.20;99.90;;;;;;5112051;28;20226;-74
2022/10/04 09:36:06;;;;;;;1.43;1.00;;;15.90;99.90;;;;;;5099652;28;20856;-75
2022/10/04 09:39:03;;;;;;;4.13;1.20;;;15.60;99.90;;;;;;5113322;28;20566;-75
2022/10/04 09:41:50;;;;;;;1.10;1.00;;;15.40;99.90;;;;;;5098397;28;20208;-74
2022/10/04 09:44:48;;;;;;;2.20;1.00;;;15.40;99.90;;;;;;5112292;28;20206;-75
2022/10/04 09:47:44;;;;;;;3.77;1.00;;;15.40;99.90;;;;;;5111194;28;20619;-75
2022/10/04 09:50:44;;;;;;;2.43;1.20;;;15.30;99.90;;;;;;5105067;28;20207;-74
2022/10/04 09:53:36;;;;;;;2.50;1.30;;;15.10;99.90;;;;;;5117902;28;20195;-74
2022/10/04 09:56:26;;;;;;;4.47;1.30;;;14.90;99.90;;;;;;5116344;28;20847;-75
2022/10/04 09:59:23;;;;;;;4.43;1.53;;;14.70;99.90;;;;;;5109909;28;20702;-75
2022/10/04 10:02:09;;;;;;;2.47;0.90;;;14.50;99.90;;;;;;5100880;28;21139;-74
2022/10/04 10:04:48;;;;;;;1.13;1.00;;;14.40;99.90;;;;;;5116986;28;20231;-73
2022/10/04 10:07:33;;;;;;;1.07;0.97;;;14.30;99.90;;;;;;5115836;28;20218;-73
2022/10/04 10:13:41;;;;;;;7.27;1.97;;;14.20;99.90;;;;;;5077553;28;20294;-75
2022/10/04 10:16:26;;;;;;;3.40;1.07;;;14.20;99.90;;;;;;5104831;28;20207;-74
2022/10/04 10:19:16;;;;;;;1.90;1.33;;;14.40;99.90;;;;;;5116131;28;20203;-74
2022/10/04 10:22:09;;;;;;;1.40;0.85;;;17.80;99.90;;;;;;5115297;28;20663;-75
2022/10/04 10:25:01;;;;;;;3.47;1.13;;;23.00;99.90;;;;;;5115835;28;20231;-74
2022/10/04 10:27:59;;;;;;;0.90;0.70;;;26.00;90.90;;;;;;5116568;28;20703;-75
2022/10/04 10:30:30;;;;;;;4.00;0.95;;;26.30;77.00;;;;;;5115836;28;20203;-74
2022/10/04 10:33:31;;;;;;;1.38;0.82;;;25.20;72.90;;;;;;5115891;28;20554;-73
2022/10/04 10:36:22;;;;;;;1.77;0.85;;;23.80;75.50;;;;;;5116110;28;20295;-75
2022/10/04 10:39:15;;;;;;;1.33;0.80;;;22.50;76.50;;;;;;5115557;28;20679;-74
2022/10/04 10:42:10;;;;;;;2.38;0.70;;;21.60;81.60;;;;;;5114964;28;20613;-74
2022/10/04 10:44:55;;;;;;;1.55;0.77;;;21.40;81.70;;;;;;5111900;28;20204;-74
2022/10/04 10:47:33;;;;;;;1.05;0.82;;;20.90;80.60;;;;;;5111906;28;20645;-74
2022/10/04 10:50:16;;;;;;;2.25;1.08;;;20.20;82.10;;;;;;5106658;28;20655;-74
2022/10/04 10:53:16;;;;;;;1.13;0.90;;;19.70;85.00;;;;;;5117376;28;20219;-74
2022/10/04 10:56:31;;;;;;;2.08;0.80;;;20.70;89.50;;;;;;5113174;28;20620;-74
2022/10/04 10:59:32;;;;;;;1.73;0.93;;;21.10;80.40;;;;;;5115238;28;20212;-74
2022/10/04 11:02:25;;;;;;;1.38;0.90;;;20.50;81.40;;;;;;5101734;28;20214;-73
2022/10/04 11:05:00;;;;;;;2.75;0.70;;;22.10;91.70;;;;;;5113908;28;20192;-74
2022/10/04 11:07:54;;;;;;;2.35;0.70;;;25.20;75.40;;;;;;5110110;28;20215;-73
2022/10/04 11:10:54;;;;;;;2.88;0.90;;;25.90;70.20;;;;;;5081013;28;20218;-73
2022/10/04 11:13:58;;;;;;;1.60;1.20;;;25.50;67.00;;;;;;5109748;28;20212;-74
2022/10/04 11:16:59;;;;;;;1.02;0.70;;;24.60;68.30;;;;;;5105650;28;20206;-74
2022/10/04 11:20:12;;;;;;;1.42;0.98;;;23.50;69.50;;;;;;5065522;28;20203;-73
2022/10/04 11:23:15;;;;;;;1.52;0.70;;;22.40;71.00;;;;;;5113663;28;20227;-74
2022/10/04 11:26:14;;;;;;;1.98;0.80;;;21.40;73.10;;;;;;5018499;28;20241;-73
2022/10/04 11:28:46;;;;;;;2.95;1.35;;;20.30;75.30;;;;;;5114043;28;20216;-72
2022/10/04 11:31:41;;;;;;;1.77;1.15;;;19.50;77.90;;;;;;5099855;28;20593;-72
2022/10/04 11:34:46;;;;;;;1.48;1.10;;;18.70;81.40;;;;;;5107807;28;20276;-74
2022/10/04 11:37:18;;;;;;;3.60;1.10;;;20.00;92.30;;;;;;5068298;28;20204;-74
2022/10/04 11:40:25;;;;;;;2.95;1.30;;;21.40;81.40;;;;;;5111946;28;20634;-76
2022/10/04 11:43:10;;;;;;;1.95;1.15;;;21.40;77.90;;;;;;5099429;28;20204;-73
2022/10/04 11:46:10;;;;;;;1.63;1.20;;;20.70;78.00;;;;;;5112962;28;20279;-76
2022/10/04 11:48:52;;;;;;;1.60;0.90;;;20.00;80.10;;;;;;5106547;28;20227;-74
2022/10/04 11:51:50;;;;;;;2.28;0.90;;;21.80;92.30;;;;;;5112578;28;20208;-76
2022/10/04 11:55:05;;;;;;;1.25;1.00;;;26.40;78.20;;;;;;5108437;28;20615;-75
2022/10/04 11:57:40;;;;;;;2.35;1.58;;;29.80;63.40;;;;;;5087315;28;20196;-72
2022/10/04 12:00:15;;;;;;;2.97;1.23;;;29.40;55.70;;;;;;5110113;28;20204;-73
2022/10/04 12:03:08;;;;;;;1.67;0.82;;;28.00;55.20;;;;;;5109647;28;20204;-73
2022/10/04 12:05:52;;;;;;;1.83;1.05;;;26.70;58.20;;;;;;5111739;28;20231;-74
2022/10/04 12:08:31;;;;;;;1.08;0.70;;;26.50;67.10;;;;;;5107819;27;20220;-74
2022/10/04 12:11:19;;;;;;;2.70;0.80;;;28.10;57.20;;;;;;5113413;28;20207;-74
2022/10/04 12:13:57;;;;;;;3.13;1.58;;;27.60;55.20;;;;;;5106873;28;20199;-75
2022/10/04 12:16:51;;;;;;;1.42;0.90;;;26.50;56.90;;;;;;5113409;28;20199;-72
2022/10/04 12:19:38;;;;;;;5.00;0.98;;;25.20;58.90;;;;;;5088333;28;20663;-73
2022/10/04 12:22:29;;;;;;;1.90;1.30;;;23.80;60.00;;;;;;5103093;28;20657;-75
2022/10/04 12:25:14;;;;;;;1.33;0.95;;;22.60;63.40;;;;;;5112508;28;20285;-74
2022/10/04 12:28:24;;;;;;;1.83;1.10;;;21.60;65.90;;;;;;5106347;27;20208;-76
2022/10/04 12:31:16;;;;;;;1.20;1.10;;;20.90;70.70;;;;;;5110820;28;20196;-77
2022/10/04 12:33:52;;;;;;;7.30;1.13;;;20.80;73.90;;;;;;5105551;28;20196;-74
2022/10/04 12:36:36;;;;;;;1.77;1.20;;;20.70;71.00;;;;;;5109725;28;20199;-75
2022/10/04 12:39:29;;;;;;;3.08;1.02;;;20.40;71.50;;;;;;5112891;28;20200;-76
2022/10/04 12:42:19;;;;;;;0.80;0.80;;;20.10;72.90;;;;;;5112909;28;20273;-74
2022/10/04 12:45:04;;;;;;;1.85;1.00;;;19.70;74.60;;;;;;5110513;28;20200;-74
2022/10/04 12:47:51;;;;;;;2.85;1.30;;;19.20;76.40;;;;;;5107088;27;20215;-74
2022/10/04 12:50:30;;;;;;;1.17;1.08;;;18.80;78.20;;;;;;5113423;28;20200;-74
2022/10/04 12:53:06;;;;;;;3.67;1.50;;;18.60;79.90;;;;;;5108660;28;20450;-74
2022/10/04 12:55:55;;;;;;;1.77;1.67;;;18.40;81.50;;;;;;5112310;28;20207;-74
2022/10/04 12:58:31;;;;;;;3.10;1.65;;;18.10;82.40;;;;;;5113123;28;20287;-75
2022/10/04 13:01:06;;;;;;;1.45;1.17;;;17.90;83.50;;;;;;5105256;27;20219;-74
2022/10/04 13:03:58;;;;;;;1.98;1.15;;;17.60;85.00;;;;;;5105274;28;20199;-75
2022/10/04 13:06:34;;;;;;;3.22;1.00;;;17.50;86.90;;;;;;5113219;28;20205;-74
2022/10/04 13:09:14;;;;;;;2.30;1.50;;;17.30;87.50;;;;;;5111399;28;20235;-75
2022/10/04 13:12:05;;;;;;;1.63;1.08;;;17.20;88.80;;;;;;5109992;28;20222;-75
2022/10/04 13:15:05;;;;;;;1.40;1.30;;;17.00;90.10;;;;;;5108374;28;20548;-75
2022/10/04 13:17:44;;;;;;;1.67;1.45;;;16.90;90.70;;;;;;5112089;28;20203;-75
2022/10/04 13:20:48;;;;;;;2.33;1.80;;;17.00;91.80;;;;;;5115426;27;20265;-75
2022/10/04 13:23:27;;;;;;;1.65;1.10;;;17.70;93.10;;;;;;5032030;28;20317;-75
2022/10/04 13:26:22;;;;;;;4.33;2.37;;;18.10;91.50;;;;;;5025498;28;20573;-75
2022/10/04 13:29:01;;;;;;;2.65;0.95;;;18.10;89.60;;;;;;5090426;28;20224;-75
2022/10/04 13:31:35;;;;;;;1.35;1.08;;;17.80;89.40;;;;;;5112192;28;20219;-74
2022/10/04 13:34:15;;;;;;;1.67;1.05;;;17.50;89.90;;;;;;5113260;28;20218;-74
2022/10/04 13:36:57;;;;;;;2.05;1.05;;;17.20;90.30;;;;;;5110561;28;20200;-74
2022/10/04 13:39:47;;;;;;;1.88;1.17;;;16.90;90.90;;;;;;5111194;28;20199;-73
2022/10/04 13:42:33;;;;;;;1.52;1.00;;;16.70;91.60;;;;;;5110128;28;20223;-73
2022/10/04 13:45:26;;;;;;;4.55;1.10;;;16.70;92.30;;;;;;5098664;28;20208;-75
2022/10/04 13:48:19;;;;;;;4.95;1.30;;;16.80;92.80;;;;;;5104736;28;20543;-74
2022/10/04 13:51:03;;;;;;;3.10;1.27;;;16.80;93.40;;;;;;5112671;28;20204;-74
2022/10/04 13:56:58;;;;;;;2.75;1.17;;;16.60;93.90;;;;;;5113794;28;20284;-72
2022/10/04 13:59:34;;;;;;;1.20;1.07;;;16.40;94.30;;;;;;5110727;28;20196;-73
2022/10/04 14:02:36;;;;;;;2.35;1.40;;;16.30;94.80;;;;;;5111766;28;20318;-73
2022/10/04 14:06:03;;;;;;;3.13;1.00;;;16.20;95.30;;;;;;5091960;28;20931;-73
2022/10/04 14:08:55;;;;;;;1.30;1.00;;;16.10;95.90;;;;;;5024776;28;20221;-73
2022/10/04 14:12:16;;;;;;;2.40;1.38;;;16.00;96.30;;;;;;5104063;28;20249;-73